Terminal Aerodrome Forecast
Issued by NWS Wilmington, NC

Home | Current Version | Previous Version | Text Only | Print | Product List | Glossary On
Versions: 1 2 3 4 5 6 7 8 9 10 11 12 13 14 15 16 17 18 19 20 21 22 23
000
FTUS42 KILM 281700
TAFLBT
TAF
KLBT 281723Z 2818/2918 26011KT P6SM SCT050 SCT200
     FM282000 28011G20KT P6SM VCTS SCT040CB SCT200
      TEMPO 2821/2901 VRB20G40KT 1SM TSRA BKN030CB
     FM290100 31008KT P6SM BKN040 BKN250
     FM290600 02005KT P6SM SCT040
     FM291300 04009KT P6SM FEW040=

USA.gov is the U.S. government's official web portal to all federal, state and local government web resources and services.